Time;durP1;ratioP1;P1;durP2;ratioP2;P2;SDS_P1;SDS_P2;PMS_P1;PMS_P2;Temp;Humidity;BMP_temperature;BMP_pressure;BME280_temperature;BME280_humidity;BME280_pressure;Samples;Min_cycle;Max_cycle;Signal;HPM_P1;HPM_P2
2024/03/07 00:00:14;;;;;;;11.80;8.90;;;;;;;0.01;63.82;100556.69;106062;1256;74068;-75
2024/03/07 00:02:49;;;;;;;11.20;8.50;;;;;;;-0.02;63.97;100553.54;106044;1258;70536;-77
2024/03/07 00:05:19;;;;;;;12.10;8.70;;;;;;;-0.05;63.80;100551.98;105907;1254;72681;-75
2024/03/07 00:07:47;;;;;;;12.30;8.00;;;;;;;-0.09;63.65;100553.21;106216;1253;60493;-76
2024/03/07 00:10:15;;;;;;;8.50;6.80;;;;;;;-0.13;63.85;100553.61;106077;1258;60336;-77
2024/03/07 00:12:43;;;;;;;12.20;7.50;;;;;;;-0.17;63.75;100553.80;106331;1253;72940;-77
2024/03/07 00:15:13;;;;;;;11.10;7.80;;;;;;;-0.20;63.73;100548.73;106303;1259;68889;-79
2024/03/07 00:17:41;;;;;;;11.60;7.80;;;;;;;-0.22;63.78;100548.81;106069;1259;70252;-76
2024/03/07 00:20:14;;;;;;;12.90;7.80;;;;;;;-0.23;63.97;100547.33;106135;1253;61341;-76
2024/03/07 00:22:43;;;;;;;10.00;8.20;;;;;;;-0.23;63.98;100541.74;106100;1258;60550;-77
2024/03/07 00:25:12;;;;;;;10.90;7.10;;;;;;;-0.24;63.93;100542.65;106449;1257;73849;-77
2024/03/07 00:27:40;;;;;;;10.90;7.90;;;;;;;-0.26;63.88;100541.89;106621;1254;69285;-74
2024/03/07 00:30:13;;;;;;;11.20;7.80;;;;;;;-0.28;63.90;100541.15;107554;1253;72688;-75
2024/03/07 00:32:41;;;;;;;10.90;7.90;;;;;;;-0.29;63.96;100544.65;108730;1253;60563;-75
2024/03/07 00:35:09;;;;;;;12.50;8.20;;;;;;;-0.30;63.96;100546.45;106436;1251;60357;-75
2024/03/07 00:37:36;;;;;;;9.90;7.70;;;;;;;-0.32;64.17;100539.42;106190;1256;73852;-75
2024/03/07 00:40:06;;;;;;;10.10;7.20;;;;;;;-0.33;64.09;100541.06;106027;1251;70197;-77
2024/03/07 00:42:33;;;;;;;9.00;7.10;;;;;;;-0.35;64.18;100538.51;106354;1253;71351;-77
2024/03/07 00:45:03;;;;;;;11.30;7.70;;;;;;;-0.36;64.05;100539.28;106978;1256;60458;-75
2024/03/07 00:47:32;;;;;;;12.60;8.10;;;;;;;-0.34;64.22;100536.95;106907;1258;60365;-78
2024/03/07 00:50:00;;;;;;;10.60;7.80;;;;;;;-0.34;64.08;100539.16;106176;1259;73754;-79
2024/03/07 00:52:27;;;;;;;11.90;8.00;;;;;;;-0.33;64.25;100533.75;105892;1257;69301;-76
2024/03/07 00:54:55;;;;;;;12.30;8.10;;;;;;;-0.33;64.45;100538.60;105913;1257;72493;-78
2024/03/07 00:57:23;;;;;;;11.70;8.80;;;;;;;-0.32;64.10;100539.44;106013;1253;60449;-77
2024/03/07 00:59:50;;;;;;;12.40;8.30;;;;;;;-0.32;64.30;100534.73;106049;1257;60558;-79
2024/03/07 01:02:18;;;;;;;10.80;7.50;;;;;;;-0.32;64.22;100535.27;105966;1254;72594;-76
2024/03/07 01:04:46;;;;;;;10.70;7.80;;;;;;;-0.32;64.34;100532.48;106026;1257;69142;-76
2024/03/07 01:07:13;;;;;;;10.50;8.20;;;;;;;-0.32;64.36;100535.08;106019;1254;73786;-75
2024/03/07 01:09:40;;;;;;;13.20;8.30;;;;;;;-0.33;64.16;100532.51;105996;1254;60468;-78
2024/03/07 01:12:10;;;;;;;11.90;7.80;;;;;;;-0.35;64.22;100530.73;106171;1251;60323;-77
2024/03/07 01:14:37;;;;;;;12.80;8.40;;;;;;;-0.37;64.18;100534.13;106151;1253;73795;-77
2024/03/07 01:17:07;;;;;;;10.50;8.00;;;;;;;-0.38;64.20;100534.34;106029;1259;69193;-78
2024/03/07 01:19:35;;;;;;;12.20;8.40;;;;;;;-0.37;64.20;100535.70;106777;1254;71435;-77
2024/03/07 01:22:03;;;;;;;11.10;8.80;;;;;;;-0.37;64.14;100535.16;106582;1253;60434;-75
2024/03/07 01:24:30;;;;;;;9.10;7.00;;;;;;;-0.38;64.02;100533.30;107933;1251;60342;-72
2024/03/07 01:26:59;;;;;;;13.30;7.50;;;;;;;-0.38;64.08;100533.13;107922;1258;72734;-76
2024/03/07 01:29:27;;;;;;;11.20;7.80;;;;;;;-0.38;64.06;100536.94;106325;1253;70252;-76
2024/03/07 01:31:55;;;;;;;9.90;8.00;;;;;;;-0.38;64.08;100534.52;105959;1258;71394;-74
2024/03/07 01:34:23;;;;;;;10.90;7.30;;;;;;;-0.39;63.99;100536.11;106108;1254;60460;-77
2024/03/07 01:36:50;;;;;;;10.80;7.80;;;;;;;-0.41;63.99;100533.77;106033;1252;60498;-75
2024/03/07 01:39:18;;;;;;;10.40;7.90;;;;;;;-0.42;63.95;100533.48;105947;1252;72397;-76
2024/03/07 01:41:45;;;;;;;14.80;8.80;;;;;;;-0.45;64.04;100541.64;106138;1253;68415;-76
2024/03/07 01:44:13;;;;;;;10.60;7.60;;;;;;;-0.47;63.81;100536.35;106302;1254;71253;-71
2024/03/07 01:46:44;;;;;;;9.80;7.30;;;;;;;-0.46;64.05;100536.84;106386;1256;60514;-73
2024/03/07 01:49:11;;;;;;;11.80;7.70;;;;;;;-0.45;64.13;100535.21;106489;1257;60486;-74
2024/03/07 01:51:39;;;;;;;11.00;8.00;;;;;;;-0.45;63.94;100532.11;106686;1253;72580;-73
2024/03/07 01:54:08;;;;;;;12.00;8.80;;;;;;;-0.46;64.06;100536.29;106697;1257;68782;-75
2024/03/07 01:56:35;;;;;;;9.70;7.50;;;;;;;-0.43;64.09;100533.56;106295;1258;72695;-73
2024/03/07 01:59:03;;;;;;;12.50;7.80;;;;;;;-0.42;64.06;100528.95;106223;1253;60624;-74
2024/03/07 02:01:30;;;;;;;9.70;7.60;;;;;;;-0.42;63.99;100526.89;105896;1253;60505;-74
2024/03/07 02:03:58;;;;;;;12.70;8.00;;;;;;;-0.42;64.07;100530.52;106216;1257;72281;-78
2024/03/07 02:06:26;;;;;;;11.10;7.40;;;;;;;-0.40;64.01;100533.41;106043;1256;69248;-77
2024/03/07 02:08:53;;;;;;;12.00;7.90;;;;;;;-0.39;63.96;100535.98;106056;1258;73709;-77
2024/03/07 02:11:21;;;;;;;12.50;8.30;;;;;;;-0.41;63.97;100538.46;106733;1259;59220;-76
2024/03/07 02:13:49;;;;;;;10.10;7.50;;;;;;;-0.42;64.02;100537.65;106388;1252;60598;-75
2024/03/07 02:16:16;;;;;;;10.30;7.90;;;;;;;-0.41;63.82;100539.00;107414;1253;74229;-72
2024/03/07 02:18:44;;;;;;;11.10;7.80;;;;;;;-0.40;63.95;100539.83;108031;1251;67775;-74
2024/03/07 02:21:13;;;;;;;9.50;7.40;;;;;;;-0.38;63.92;100539.38;107191;1251;71747;-75
2024/03/07 02:23:41;;;;;;;10.20;7.40;;;;;;;-0.38;63.83;100531.38;106310;1259;60443;-76
2024/03/07 02:26:08;;;;;;;10.10;7.90;;;;;;;-0.41;63.95;100534.85;106144;1256;60437;-75
2024/03/07 02:28:36;;;;;;;11.50;7.80;;;;;;;-0.44;63.94;100534.27;105919;1260;75827;-74
2024/03/07 02:31:03;;;;;;;11.10;7.80;;;;;;;-0.43;63.93;100535.63;106125;1253;68911;-74
2024/03/07 02:33:32;;;;;;;11.50;7.80;;;;;;;-0.43;63.83;100535.46;106083;1258;70844;-74
2024/03/07 02:36:00;;;;;;;11.40;7.80;;;;;;;-0.43;63.94;100532.49;105654;1259;60457;-75
2024/03/07 02:38:27;;;;;;;15.80;8.30;;;;;;;-0.43;63.95;100534.59;106003;1266;60348;-73
2024/03/07 02:40:56;;;;;;;12.10;8.50;;;;;;;-0.43;63.92;100533.17;105710;1259;73921;-73
2024/03/07 02:43:23;;;;;;;10.10;7.20;;;;;;;-0.42;63.98;100529.29;105889;1257;70439;-74
2024/03/07 02:45:51;;;;;;;12.10;7.70;;;;;;;-0.42;64.02;100530.90;105946;1259;72668;-74
2024/03/07 02:48:18;;;;;;;12.70;7.60;;;;;;;-0.45;63.83;100531.04;105865;1258;60522;-75
2024/03/07 02:50:47;;;;;;;10.60;7.00;;;;;;;-0.46;64.13;100531.99;106080;1257;60445;-73
2024/03/07 02:53:15;;;;;;;11.10;7.50;;;;;;;-0.48;63.82;100530.30;106003;1251;73007;-71
2024/03/07 02:55:43;;;;;;;12.80;7.90;;;;;;;-0.48;63.92;100524.59;105698;1257;70826;-76
2024/03/07 02:58:10;;;;;;;10.70;8.20;;;;;;;-0.49;63.93;100524.30;106109;1251;72726;-73
2024/03/07 03:00:37;;;;;;;16.20;8.50;;;;;;;-0.50;63.94;100527.64;106113;1257;60409;-71
2024/03/07 03:03:05;;;;;;;10.50;7.80;;;;;;;-0.50;63.97;100524.00;106144;1258;60515;-74
2024/03/07 03:05:32;;;;;;;10.80;7.60;;;;;;;-0.51;64.04;100527.55;106143;1254;73707;-75
2024/03/07 03:08:00;;;;;;;12.40;8.00;;;;;;;-0.51;64.08;100526.45;106048;1258;70912;-74
2024/03/07 03:10:30;;;;;;;10.70;7.50;;;;;;;-0.50;63.99;100525.19;107025;1254;71829;-74
2024/03/07 03:12:59;;;;;;;11.20;7.80;;;;;;;-0.49;64.06;100528.45;108496;1252;59300;-75
2024/03/07 03:15:28;;;;;;;9.80;7.40;;;;;;;-0.47;63.94;100525.23;107110;1258;60364;-76
2024/03/07 03:17:59;;;;;;;12.30;8.30;;;;;;;-0.47;64.01;100523.83;106125;1254;73877;-75
2024/03/07 03:20:33;;;;;;;12.50;8.30;;;;;;;-0.48;64.06;100525.77;106296;1256;70638;-74
2024/03/07 03:23:03;;;;;;;12.60;8.10;;;;;;;-0.47;64.01;100524.00;105987;1257;71396;-74
2024/03/07 03:25:47;;;;;;;12.90;8.20;;;;;;;-0.46;64.21;100527.27;106267;1259;60430;-75
2024/03/07 03:28:14;;;;;;;12.30;8.60;;;;;;;-0.46;64.12;100528.32;106517;1253;61412;-73
2024/03/07 03:30:43;;;;;;;11.30;7.80;;;;;;;-0.47;64.13;100530.08;106443;1260;77217;-76
2024/03/07 03:33:10;;;;;;;12.60;9.00;;;;;;;-0.46;64.41;100527.46;106321;1259;69022;-74
2024/03/07 03:35:39;;;;;;;11.40;8.80;;;;;;;-0.47;64.52;100531.45;106468;1253;71352;-74
2024/03/07 03:38:07;;;;;;;10.70;7.70;;;;;;;-0.49;64.42;100530.52;105990;1266;60433;-76
2024/03/07 03:40:35;;;;;;;11.90;8.50;;;;;;;-0.50;64.45;100535.13;106342;1254;60326;-75
2024/03/07 03:43:03;;;;;;;14.10;9.60;;;;;;;-0.51;64.38;100537.99;106236;1252;71686;-75
2024/03/07 03:45:33;;;;;;;13.50;8.70;;;;;;;-0.53;64.50;100537.88;106176;1258;68783;-73
2024/03/07 03:48:02;;;;;;;12.40;8.70;;;;;;;-0.54;64.51;100538.10;106299;1259;70748;-74
2024/03/07 03:50:31;;;;;;;12.20;8.80;;;;;;;-0.54;64.42;100538.47;106218;1257;60604;-75
2024/03/07 03:53:01;;;;;;;12.00;9.00;;;;;;;-0.55;64.42;100540.08;106774;1256;60411;-76
2024/03/07 03:55:29;;;;;;;12.90;8.60;;;;;;;-0.54;64.46;100538.98;106779;1254;74613;-76
2024/03/07 03:57:56;;;;;;;13.70;10.40;;;;;;;-0.53;64.39;100543.11;106269;1251;70339;-74
2024/03/07 04:00:24;;;;;;;14.30;8.90;;;;;;;-0.53;64.47;100542.04;106966;1257;72485;-75
2024/03/07 04:02:51;;;;;;;11.50;7.70;;;;;;;-0.53;64.30;100541.20;106511;1257;60533;-76
2024/03/07 04:05:20;;;;;;;11.10;8.30;;;;;;;-0.53;64.29;100544.86;107894;1251;60007;-75
2024/03/07 04:07:48;;;;;;;10.40;7.70;;;;;;;-0.52;64.31;100542.02;108157;1252;73955;-74
2024/03/07 04:10:17;;;;;;;12.20;8.70;;;;;;;-0.52;64.20;100542.88;107341;1251;72565;-78
2024/03/07 04:12:45;;;;;;;10.10;7.80;;;;;;;-0.53;64.10;100544.69;107672;1258;71692;-73
2024/03/07 04:15:16;;;;;;;11.20;7.90;;;;;;;-0.53;63.90;100545.22;106875;1253;59230;-73
2024/03/07 04:17:46;;;;;;;12.30;8.20;;;;;;;-0.53;64.01;100548.49;106663;1251;60464;-71
2024/03/07 04:20:17;;;;;;;12.70;8.60;;;;;;;-0.54;63.87;100547.85;106457;1251;73918;-73
2024/03/07 04:22:48;;;;;;;12.90;9.50;;;;;;;-0.55;63.93;100548.09;106842;1257;70312;-74
2024/03/07 04:25:17;;;;;;;10.50;8.40;;;;;;;-0.56;63.88;100549.18;106694;1253;72730;-72
2024/03/07 04:27:45;;;;;;;13.10;8.80;;;;;;;-0.58;64.02;100551.36;106270;1257;60515;-75
2024/03/07 04:30:16;;;;;;;12.60;8.40;;;;;;;-0.59;64.01;100551.23;106526;1251;60639;-74
2024/03/07 04:32:44;;;;;;;11.00;8.20;;;;;;;-0.59;63.89;100555.92;106611;1257;73869;-74
2024/03/07 04:35:12;;;;;;;10.90;8.30;;;;;;;-0.59;64.03;100554.53;106689;1251;70369;-74
2024/03/07 04:37:44;;;;;;;12.60;8.50;;;;;;;-0.57;63.94;100554.11;106123;1257;72877;-74
2024/03/07 04:40:15;;;;;;;12.20;8.80;;;;;;;-0.59;64.00;100557.14;106388;1254;60467;-73
2024/03/07 04:42:46;;;;;;;13.90;8.60;;;;;;;-0.60;63.95;100555.45;106181;1256;60580;-74
2024/03/07 04:45:14;;;;;;;13.50;8.70;;;;;;;-0.60;64.05;100558.22;106057;1253;72519;-72
2024/03/07 04:47:44;;;;;;;15.80;9.00;;;;;;;-0.56;64.15;100558.09;106026;1254;69890;-76
2024/03/07 04:50:16;;;;;;;13.50;8.60;;;;;;;-0.56;63.95;100563.29;105943;1251;72765;-75
2024/03/07 04:52:46;;;;;;;;;;;;;;;-0.57;64.02;100560.53;106179;1254;60543;-75
2024/03/07 04:55:15;;;;;;;12.00;8.50;;;;;;;-0.60;64.06;100562.23;105848;1257;60590;-75
2024/03/07 04:57:43;;;;;;;13.10;8.70;;;;;;;-0.64;63.98;100564.71;106194;1254;72686;-74
2024/03/07 05:00:14;;;;;;;10.10;7.60;;;;;;;-0.69;63.85;100562.16;108937;1253;68053;-74
2024/03/07 05:02:46;;;;;;;13.30;9.00;;;;;;;-0.69;64.06;100566.70;108733;1253;71088;-75
2024/03/07 05:05:18;;;;;;;13.50;9.20;;;;;;;-0.67;64.01;100568.88;105759;1254;200925;-75
2024/03/07 05:09:56;;;;;;;12.60;8.70;;;;;;;-0.62;64.10;100566.36;102800;1291;600736;-75
2024/03/07 05:12:24;;;;;;;12.50;8.60;;;;;;;-0.64;64.15;100567.33;105172;1269;59442;-75
2024/03/07 05:14:51;;;;;;;11.80;8.70;;;;;;;-0.63;64.09;100571.43;105640;1258;60104;-75
2024/03/07 05:17:19;;;;;;;10.00;8.00;;;;;;;-0.63;63.99;100574.21;105563;1256;72357;-75
2024/03/07 05:19:48;;;;;;;11.10;7.90;;;;;;;-0.66;63.75;100572.13;105593;1263;70263;-77
2024/03/07 05:22:18;;;;;;;9.60;7.80;;;;;;;-0.68;63.84;100573.61;105685;1262;70890;-77
2024/03/07 05:24:45;;;;;;;13.10;8.70;;;;;;;-0.68;63.83;100580.05;105694;1262;188651;-75
2024/03/07 05:27:15;;;;;;;13.70;8.10;;;;;;;-0.69;63.76;100579.07;106430;1253;60108;-76
2024/03/07 05:29:43;;;;;;;12.30;8.50;;;;;;;-0.70;63.67;100581.19;106792;1260;74042;-75
2024/03/07 05:32:22;;;;;;;10.20;8.20;;;;;;;-0.71;63.78;100584.35;105840;1254;70193;-76
2024/03/07 05:34:50;;;;;;;11.90;8.20;;;;;;;-0.70;63.61;100583.98;105755;1254;73644;-76
2024/03/07 05:37:18;;;;;;;11.40;8.10;;;;;;;-0.70;63.59;100582.93;105581;1254;59656;-77
2024/03/07 05:39:45;;;;;;;10.50;8.00;;;;;;;-0.69;63.36;100585.81;105957;1260;59953;-75
2024/03/07 05:42:14;;;;;;;11.90;8.50;;;;;;;-0.68;63.30;100586.12;105880;1255;74144;-75
2024/03/07 05:44:42;;;;;;;12.50;7.60;;;;;;;-0.66;63.29;100587.79;105929;1254;70063;-75
2024/03/07 05:47:10;;;;;;;11.90;8.70;;;;;;;-0.65;63.08;100587.38;105587;1257;72747;-76
2024/03/07 05:49:37;;;;;;;11.20;7.20;;;;;;;-0.63;63.13;100590.93;105806;1260;59680;-74
2024/03/07 05:52:07;;;;;;;10.70;7.30;;;;;;;-0.63;62.81;100589.85;106377;1254;59691;-74
2024/03/07 05:54:35;;;;;;;11.00;7.60;;;;;;;-0.62;62.72;100592.42;108409;1259;73122;-72
2024/03/07 05:57:06;;;;;;;11.80;7.30;;;;;;;-0.59;62.79;100593.86;107852;1255;68956;-76
2024/03/07 05:59:34;;;;;;;10.30;7.50;;;;;;;-0.53;62.55;100590.80;106159;1254;73893;-75
2024/03/07 06:02:02;;;;;;;11.30;8.10;;;;;;;-0.49;62.68;100591.64;106238;1251;59743;-73
2024/03/07 06:04:31;;;;;;;11.00;7.50;;;;;;;-0.46;62.40;100594.08;105621;1257;60125;-70
2024/03/07 06:06:59;;;;;;;9.70;6.80;;;;;;;-0.44;62.34;100595.92;105513;1256;71610;-73
2024/03/07 06:09:27;;;;;;;10.20;7.30;;;;;;;-0.44;62.21;100598.34;105729;1254;69004;-73
2024/03/07 06:11:55;;;;;;;9.60;7.70;;;;;;;-0.44;62.04;100596.79;105611;1254;72702;-69
2024/03/07 06:14:24;;;;;;;11.30;7.60;;;;;;;-0.43;62.16;100600.75;105642;1260;59766;-72
2024/03/07 06:16:52;;;;;;;10.50;8.20;;;;;;;-0.41;62.14;100601.16;105586;1259;59632;-73
2024/03/07 06:19:20;;;;;;;11.80;8.20;;;;;;;-0.40;61.87;100600.02;105707;1259;72822;-74
2024/03/07 06:21:48;;;;;;;10.70;7.70;;;;;;;-0.38;61.80;100602.08;105492;1254;70182;-73
2024/03/07 06:24:18;;;;;;;10.30;7.50;;;;;;;-0.36;61.93;100602.66;105618;1257;71127;-72
2024/03/07 06:26:48;;;;;;;11.40;7.80;;;;;;;-0.36;62.15;100599.00;105511;1260;59634;-72
2024/03/07 06:29:17;;;;;;;11.00;8.00;;;;;;;-0.35;62.34;100601.73;105371;1258;60105;-73
2024/03/07 06:31:49;;;;;;;11.90;8.40;;;;;;;-0.33;62.46;100602.67;105616;1254;71848;-73
2024/03/07 06:34:17;;;;;;;11.80;8.30;;;;;;;-0.31;62.41;100603.98;105479;1254;70477;-72
2024/03/07 06:36:45;;;;;;;11.50;7.70;;;;;;;-0.31;62.33;100598.21;105501;1256;72663;-74
2024/03/07 06:39:13;;;;;;;11.50;7.80;;;;;;;-0.30;62.42;100601.46;105581;1258;59599;-71
2024/03/07 06:41:41;;;;;;;11.20;8.40;;;;;;;-0.29;62.56;100600.72;105531;1257;59705;-72
2024/03/07 06:44:09;;;;;;;12.60;8.40;;;;;;;-0.26;62.44;100603.02;105490;1254;72974;-72
2024/03/07 06:46:37;;;;;;;8.90;7.40;;;;;;;-0.22;62.48;100602.80;106142;1254;72445;-72
2024/03/07 06:49:10;;;;;;;10.80;8.20;;;;;;;-0.19;62.31;100600.42;107281;1254;71533;-71
2024/03/07 06:51:39;;;;;;;10.10;7.30;;;;;;;-0.16;62.00;100604.25;106628;1255;59631;-71
2024/03/07 06:54:07;;;;;;;10.90;7.60;;;;;;;-0.15;61.89;100609.76;105608;1254;59512;-72
2024/03/07 06:56:34;;;;;;;13.50;8.00;;;;;;;-0.13;61.89;100606.55;105591;1260;73062;-75
2024/03/07 06:59:06;;;;;;;10.20;7.30;;;;;;;-0.11;61.93;100606.26;105670;1260;69234;-73
2024/03/07 07:01:34;;;;;;;12.80;8.00;;;;;;;-0.08;62.11;100605.75;105554;1254;75108;-74
2024/03/07 07:04:03;;;;;;;10.20;7.00;;;;;;;-0.04;61.95;100609.91;105617;1254;59659;-74
2024/03/07 07:06:31;;;;;;;10.40;8.00;;;;;;;-0.03;61.88;100614.55;105315;1260;60029;-74
2024/03/07 07:09:02;;;;;;;9.90;7.00;;;;;;;-0.03;62.04;100615.44;105446;1259;74410;-73
2024/03/07 07:11:30;;;;;;;10.10;7.30;;;;;;;-0.03;62.06;100615.92;105471;1259;71865;-75
2024/03/07 07:14:02;;;;;;;11.30;7.80;;;;;;;-0.02;62.03;100616.76;105334;1254;74927;-74
2024/03/07 07:16:31;;;;;;;10.90;7.90;;;;;;;0.00;62.18;100617.54;105594;1260;59606;-73
2024/03/07 07:18:58;;;;;;;13.90;8.60;;;;;;;0.01;62.15;100625.48;105578;1257;62245;-72
2024/03/07 07:21:26;;;;;;;13.00;7.90;;;;;;;0.02;62.22;100624.77;105413;1254;75467;-72
2024/03/07 07:23:53;;;;;;;11.60;7.40;;;;;;;0.03;62.60;100625.03;105443;1258;69491;-73
2024/03/07 07:26:21;;;;;;;9.20;7.50;;;;;;;0.03;62.76;100624.86;105598;1261;71314;-72
2024/03/07 07:28:49;;;;;;;12.90;7.00;;;;;;;0.03;62.94;100624.02;105578;1254;61268;-72
2024/03/07 07:31:16;;;;;;;11.00;7.90;;;;;;;0.03;63.00;100628.70;105570;1261;59663;-71
2024/03/07 07:33:44;;;;;;;9.00;6.80;;;;;;;0.03;62.88;100627.85;105452;1259;72923;-75
2024/03/07 07:36:13;;;;;;;11.80;7.40;;;;;;;0.03;62.90;100629.90;105309;1259;69140;-72
2024/03/07 07:38:41;;;;;;;12.30;8.10;;;;;;;0.03;62.71;100630.30;105363;1258;73293;-75
2024/03/07 07:41:10;;;;;;;10.70;7.70;;;;;;;0.05;62.83;100632.64;105728;1255;59725;-74
2024/03/07 07:43:40;;;;;;;11.00;7.40;;;;;;;0.08;62.79;100632.61;106599;1254;59780;-73
2024/03/07 07:46:10;;;;;;;12.90;6.90;;;;;;;0.11;62.86;100630.23;106947;1259;74987;-74
2024/03/07 07:48:38;;;;;;;9.20;7.00;;;;;;;0.12;63.32;100632.77;105853;1260;69049;-71
2024/03/07 07:51:06;;;;;;;14.30;8.10;;;;;;;0.13;63.27;100633.95;105489;1254;74395;-73
2024/03/07 07:53:34;;;;;;;9.00;7.50;;;;;;;0.14;63.34;100631.80;105438;1254;59974;-74
2024/03/07 07:56:02;;;;;;;10.90;8.10;;;;;;;0.14;63.34;100634.76;106013;1254;60062;-80
2024/03/07 07:58:30;;;;;;;8.70;6.70;;;;;;;0.10;63.39;100632.67;106990;1255;73203;-82
2024/03/07 08:00:57;;;;;;;10.70;6.80;;;;;;;0.09;63.38;100638.69;106020;1255;71347;-75
2024/03/07 08:03:25;;;;;;;11.10;7.50;;;;;;;0.10;63.70;100638.80;105772;1254;72431;-75
2024/03/07 08:05:54;;;;;;;10.10;8.00;;;;;;;0.12;63.60;100642.17;105711;1260;59747;-75
2024/03/07 08:08:22;;;;;;;9.30;7.40;;;;;;;0.12;63.22;100639.57;105916;1253;59648;-74
2024/03/07 08:10:50;;;;;;;9.40;7.00;;;;;;;0.11;63.08;100636.98;105758;1257;75355;-75
2024/03/07 08:13:18;;;;;;;11.60;7.80;;;;;;;0.09;62.78;100640.77;105767;1260;71347;-74
2024/03/07 08:15:46;;;;;;;9.50;7.40;;;;;;;0.05;62.77;100641.48;105720;1259;71628;-75
2024/03/07 08:18:14;;;;;;;10.30;7.50;;;;;;;0.03;62.89;100634.29;105790;1254;59559;-75
2024/03/07 08:20:43;;;;;;;11.00;6.90;;;;;;;0.05;62.72;100637.66;105704;1260;60772;-74
2024/03/07 08:23:12;;;;;;;10.50;7.70;;;;;;;0.05;62.61;100638.88;105855;1254;75363;-73
2024/03/07 08:25:40;;;;;;;9.10;7.50;;;;;;;0.09;62.62;100639.71;105908;1258;72128;-78
2024/03/07 08:28:08;;;;;;;8.60;7.30;;;;;;;0.10;62.25;100641.25;105720;1253;72549;-78
2024/03/07 08:30:36;;;;;;;9.30;6.90;;;;;;;0.12;62.10;100640.63;105996;1254;59563;-79
2024/03/07 08:33:05;;;;;;;9.00;6.30;;;;;;;0.14;61.91;100637.52;106078;1259;59642;-79
2024/03/07 08:35:34;;;;;;;9.70;6.40;;;;;;;0.17;61.97;100641.89;105983;1254;75059;-78
2024/03/07 08:38:03;;;;;;;7.50;6.40;;;;;;;0.21;61.67;100642.39;106782;1255;72446;-78
2024/03/07 08:40:33;;;;;;;10.80;6.80;;;;;;;0.23;61.44;100646.52;109140;1253;73836;-79
2024/03/07 08:43:06;;;;;;;9.40;7.50;;;;;;;0.25;61.45;100650.21;108830;1253;59635;-79
2024/03/07 08:45:35;;;;;;;10.40;7.40;;;;;;;0.32;61.36;100649.30;106267;1254;59794;-78
2024/03/07 08:48:04;;;;;;;11.20;7.30;;;;;;;0.37;61.33;100648.86;106567;1258;74206;-78
2024/03/07 08:50:34;;;;;;;10.50;7.70;;;;;;;0.40;61.08;100647.14;106224;1254;71922;-79
2024/03/07 08:53:04;;;;;;;11.50;6.60;;;;;;;0.43;61.12;100648.41;106445;1254;72827;-81
2024/03/07 08:55:32;;;;;;;10.00;7.00;;;;;;;0.47;60.93;100650.14;106387;1259;59787;-79
2024/03/07 08:58:00;;;;;;;11.20;7.90;;;;;;;0.50;60.70;100648.02;106822;1253;60156;-81
2024/03/07 09:00:27;;;;;;;10.10;7.20;;;;;;;0.51;60.33;100650.45;106523;1254;72331;-80
2024/03/07 09:02:59;;;;;;;10.10;6.90;;;;;;;0.51;60.27;100651.13;106050;1254;70250;-79
2024/03/07 09:05:31;;;;;;;8.60;6.70;;;;;;;0.52;60.15;100649.48;106133;1253;71542;-82
2024/03/07 09:07:59;;;;;;;11.10;6.50;;;;;;;0.53;60.07;100650.46;105999;1253;61540;-80
2024/03/07 09:10:29;;;;;;;10.20;7.00;;;;;;;0.54;60.15;100649.37;105928;1251;59721;-78
2024/03/07 09:12:58;;;;;;;8.40;6.90;;;;;;;0.60;60.15;100649.45;105853;1253;72170;-78
2024/03/07 09:15:26;;;;;;;12.20;7.40;;;;;;;0.66;60.11;100648.76;105922;1254;71694;-79
2024/03/07 09:17:55;;;;;;;10.90;7.60;;;;;;;0.72;59.72;100649.33;105951;1254;74278;-77
2024/03/07 09:20:23;;;;;;;8.60;6.60;;;;;;;0.75;59.66;100651.77;105809;1257;60495;-77
2024/03/07 09:22:54;;;;;;;9.30;6.90;;;;;;;0.77;59.43;100651.45;105770;1254;60425;-79
2024/03/07 09:25:24;;;;;;;11.10;7.50;;;;;;;0.80;59.40;100652.38;105813;1257;73926;-78
2024/03/07 09:27:54;;;;;;;8.00;6.70;;;;;;;0.84;59.37;100655.09;106008;1254;71884;-79
2024/03/07 09:30:25;;;;;;;11.00;7.10;;;;;;;0.90;59.23;100652.88;105954;1253;74831;-74
2024/03/07 09:32:58;;;;;;;12.10;6.90;;;;;;;0.93;59.04;100652.33;105880;1257;60377;-76
2024/03/07 09:35:25;;;;;;;9.20;6.90;;;;;;;0.97;59.07;100650.70;108028;1251;62422;-75
2024/03/07 09:37:54;;;;;;;8.90;6.70;;;;;;;1.01;58.96;100650.86;108089;1253;73376;-75
2024/03/07 09:40:25;;;;;;;12.50;6.40;;;;;;;1.05;59.06;100654.46;106064;1253;70948;-75
2024/03/07 09:42:56;;;;;;;9.70;6.80;;;;;;;1.10;58.85;100651.42;105897;1254;72956;-76
2024/03/07 09:45:28;;;;;;;8.60;6.50;;;;;;;1.12;58.59;100653.22;105905;1259;60369;-75
2024/03/07 09:47:57;;;;;;;8.90;6.80;;;;;;;1.09;58.64;100650.08;105947;1253;62282;-75
2024/03/07 09:50:27;;;;;;;12.10;7.00;;;;;;;1.11;58.82;100648.05;105952;1254;73784;-75
2024/03/07 09:52:55;;;;;;;8.70;6.50;;;;;;;1.13;58.88;100648.09;105773;1251;69863;-76
2024/03/07 09:55:24;;;;;;;8.40;6.30;;;;;;;1.16;58.65;100644.98;105849;1253;74971;-76
2024/03/07 09:57:55;;;;;;;8.50;6.60;;;;;;;1.22;58.90;100642.54;105724;1253;60550;-76
2024/03/07 10:00:25;;;;;;;7.60;6.20;;;;;;;1.28;58.44;100642.05;105813;1254;62237;-77
2024/03/07 10:02:58;;;;;;;9.80;6.50;;;;;;;1.30;58.15;100638.63;105702;1253;72523;-76
2024/03/07 10:05:27;;;;;;;9.80;6.90;;;;;;;1.29;57.88;100640.41;105900;1259;68914;-72
2024/03/07 10:07:55;;;;;;;9.30;6.80;;;;;;;1.27;58.02;100641.02;105925;1253;74039;-74
2024/03/07 10:10:23;;;;;;;8.30;6.50;;;;;;;1.29;57.94;100639.20;105514;1254;60623;-74
2024/03/07 10:12:53;;;;;;;9.30;6.70;;;;;;;1.30;58.06;100639.80;106038;1259;60510;-75
2024/03/07 10:15:22;;;;;;;8.70;6.80;;;;;;;1.33;57.70;100641.23;105863;1261;75867;-75
2024/03/07 10:17:50;;;;;;;8.40;6.70;;;;;;;1.34;57.73;100634.02;106253;1253;72481;-81
2024/03/07 10:20:22;;;;;;;13.60;7.40;;;;;;;1.38;57.79;100635.70;106114;1254;72930;-78
2024/03/07 10:22:50;;;;;;;9.80;8.10;;;;;;;1.46;57.85;100636.15;106200;1258;60466;-77
2024/03/07 10:25:19;;;;;;;7.50;6.30;;;;;;;1.51;57.20;100632.86;107307;1253;62408;-78
2024/03/07 10:27:49;;;;;;;8.70;6.60;;;;;;;1.54;56.84;100633.92;108228;1253;74648;-80
2024/03/07 10:30:22;;;;;;;6.80;5.60;;;;;;;1.55;56.81;100632.08;109210;1253;72213;-80
2024/03/07 10:32:57;;;;;;;8.70;6.70;;;;;;;1.59;56.48;100630.52;107598;1254;73506;-79
2024/03/07 10:35:28;;;;;;;8.70;6.60;;;;;;;1.59;56.34;100633.16;106701;1257;60367;-79
2024/03/07 10:38:06;;;;;;;9.80;6.80;;;;;;;1.57;56.35;100635.30;106287;1254;61108;-79
2024/03/07 10:40:40;;;;;;;8.40;6.70;;;;;;;1.59;56.48;100634.02;106164;1255;76208;-79
2024/03/07 10:43:14;;;;;;;9.50;7.30;;;;;;;1.62;56.36;100633.98;106126;1252;72374;-82
2024/03/07 10:45:47;;;;;;;8.40;6.70;;;;;;;1.64;56.39;100632.29;106758;1253;73578;-84
2024/03/07 10:48:20;;;;;;;9.60;6.00;;;;;;;1.70;56.43;100632.11;106608;1253;60776;-84
2024/03/07 10:50:59;;;;;;;9.30;6.60;;;;;;;1.76;56.10;100632.83;106522;1253;61017;-81
2024/03/07 10:54:05;;;;;;;9.40;6.40;;;;;;;1.76;56.07;100632.30;106014;1253;73008;-81
2024/03/07 10:56:58;;;;;;;11.50;6.50;;;;;;;1.81;56.19;100632.54;106066;1253;70735;-83
2024/03/07 10:59:29;;;;;;;8.80;6.40;;;;;;;1.84;56.13;100627.81;106165;1253;71810;-82
2024/03/07 11:02:27;;;;;;;8.90;6.90;;;;;;;1.88;55.97;100632.33;105931;1253;60423;-82
2024/03/07 11:04:55;;;;;;;9.80;6.30;;;;;;;1.91;56.02;100629.49;106036;1254;61199;-81
2024/03/07 11:07:23;;;;;;;9.70;6.20;;;;;;;1.95;55.85;100631.36;105826;1254;74662;-80
2024/03/07 11:09:55;;;;;;;8.50;5.70;;;;;;;1.96;55.62;100629.02;106006;1253;68955;-79
2024/03/07 11:12:23;;;;;;;7.80;6.50;;;;;;;1.94;55.53;100630.55;105787;1256;74858;-76
2024/03/07 11:14:51;;;;;;;12.10;6.60;;;;;;;1.88;55.46;100626.34;105881;1255;60808;-77
2024/03/07 11:17:20;;;;;;;9.20;7.10;;;;;;;1.84;55.54;100628.14;105907;1253;61722;-79
2024/03/07 11:19:49;;;;;;;9.30;7.30;;;;;;;1.77;55.71;100627.88;105952;1256;74191;-77
2024/03/07 11:22:34;;;;;;;9.00;6.50;;;;;;;1.71;56.01;100624.40;108842;1253;68269;-76
2024/03/07 11:25:10;;;;;;;10.50;7.90;;;;;;;1.72;55.93;100621.33;108368;1253;70474;-78